Bonshaw, Prince Edward Island

12:38 AM AST on February 08, 2016 (GMT -0400)
Elmwood | | Change Station
CLOSE
Current Station
Personal Weather Station
Location: Elmwood, PEI
Elevation: 233 ft
Nearby Weather Stations

Elev 233 ft 46.25 °N, 63.33 °W | Updated 2 minutes ago

Clear
Clear
15.8 °F
Feels Like 6 °F
N
7.0
Wind Variable Wind from North
Gusts 11.0 mph

Today is forecast to be nearly the same temperature as yesterday.

Today
High -- | Low -- °F
--% Chance of Precip.
Yesterday
High -- | Low -- °F
Precip. -- in
Pressure 30.22 in
Visibility 15.0 miles
Clouds Clear
Windchill 6 °F
Dew Point 10 °F
Humidity 76%
Rainfall 0.00 in
Snow Depth Not available.
7:27 AM 5:27 PM
Waning Crescent, 0% visible
METAR CYYG 080400Z 34013G21KT 15SM SKC M09/M14 A3021 RMK SLP234
Pressure 30.22 in
Visibility 15.0 miles
Clouds Clear
Windchill 6 °F
Dew Point 10 °F
Humidity 76%
Rainfall 0.00 in
Snow Depth Not available.
7:27 AM 5:27 PM
Waning Crescent, 0% visible
METAR CYYG 080400Z 34013G21KT 15SM SKC M09/M14 A3021 RMK SLP234
Nowcast |

Blowing Snow Advisory in effect

×

10-Day Weather Forecast

No radar image for this location.
×

Almanac

Astronomy

Feb. 08, 2016 Rise Set
Actual Time
Civil Twilight
Nautical Twilight
Astronomical Twilight
Moon
Length of Visible Light
Length of Day
Tomorrow will be .
, % of the Moon is Illuminated

Today's Extremes

Country Highs Country Lows

Community

WunderPhotos

Upload Photos

1,891,382 photos uploaded!

WunderBlog® & News

Nearby

Air Quality

  Air Quality AQ Index Pollutant
Not available.

Snow Depth

Station Depth Elevation

Earthquake Activity

City Distance Mag. Time & Date
Minimum magnitude displayed is 2.5.

Coastal Water Temperatures

Place Temperature

Stations

Nearby Weather Stations

Station Location Temp. Windchill Dew Point Humidity Wind Precip. Elev Updated Type
                   

Watches & Warnings

There are currently no watches in effect.